Time;durP1;ratioP1;P1;durP2;ratioP2;P2;SDS_P1;SDS_P2;PMS_P1;PMS_P2;Temp;Humidity;BMP_temperature;BMP_pressure;BME280_temperature;BME280_humidity;BME280_pressure;Samples;Min_cycle;Max_cycle;Signal;HPM_P1;HPM_P2
2022/11/04 00:01:50;;;;;;;1.88;0.60;;;;;;;8.29;100.00;100173.31;5031797;28;20067;-82
2022/11/04 00:04:18;;;;;;;1.63;0.60;;;;;;;8.33;100.00;100187.97;5046514;28;20067;-82
2022/11/04 00:06:44;;;;;;;16.38;1.17;;;;;;;8.42;100.00;100204.81;5031607;28;20370;-81
2022/11/04 00:09:14;;;;;;;4.60;0.95;;;;;;;8.45;100.00;100199.28;5031811;28;20080;-80
2022/11/04 00:14:23;;;;;;;7.88;1.10;;;;;;;8.21;100.00;100202.31;5032030;28;20138;-81
2022/11/04 00:28:41;;;;;;;1.73;0.40;;;;;;;7.87;100.00;100184.19;5031455;28;20064;-80
2022/11/04 00:30:31;;;;;;;3.95;0.80;;;;;;;7.25;100.00;100194.88;5030715;28;20115;-81
2022/11/04 00:35:40;;;;;;;1.17;0.57;;;;;;;7.04;100.00;100203.69;5030696;28;20105;-82
2022/11/04 00:38:05;;;;;;;4.80;1.20;;;;;;;6.96;100.00;100198.22;5045110;28;20098;-81
2022/11/04 00:40:31;;;;;;;4.57;0.70;;;;;;;6.89;100.00;100194.44;5028831;28;20061;-82
2022/11/04 00:42:56;;;;;;;5.80;0.80;;;;;;;6.83;100.00;100192.31;5029806;28;20553;-81
2022/11/04 00:45:21;;;;;;;2.92;0.80;;;;;;;6.78;100.00;100199.81;5030431;28;20052;-82
2022/11/04 00:47:47;;;;;;;1.92;0.60;;;;;;;6.73;100.00;100204.63;5031559;28;20034;-82
2022/11/04 00:50:12;;;;;;;4.03;0.70;;;;;;;6.66;100.00;100209.63;5033432;28;20052;-81
2022/11/04 00:52:37;;;;;;;4.32;0.73;;;;;;;6.59;100.00;100214.56;5032130;28;20116;-80
2022/11/04 00:55:03;;;;;;;2.47;0.70;;;;;;;6.54;100.00;100216.75;5031388;28;20126;-81
2022/11/04 00:57:29;;;;;;;3.95;0.90;;;;;;;6.51;100.00;100225.78;5030614;28;20033;-81
2022/11/04 00:59:54;;;;;;;4.00;0.75;;;;;;;6.54;100.00;100227.34;5030502;28;20453;-81
2022/11/04 01:02:19;;;;;;;1.75;0.75;;;;;;;6.56;100.00;100224.56;5030563;28;20060;-81
2022/11/04 01:04:46;;;;;;;1.85;0.50;;;;;;;6.60;100.00;100229.47;5030252;28;20408;-82
2022/11/04 01:07:11;;;;;;;2.97;0.77;;;;;;;6.64;100.00;100232.69;5030324;28;20128;-81
2022/11/04 01:09:37;;;;;;;9.02;1.30;;;;;;;6.71;100.00;100237.31;5030038;28;20160;-82
2022/11/04 01:12:02;;;;;;;5.25;1.17;;;;;;;6.77;100.00;100243.06;5029359;28;20037;-80
2022/11/04 01:14:28;;;;;;;3.60;0.80;;;;;;;6.81;100.00;100253.25;5029892;28;20045;-81
2022/11/04 01:16:53;;;;;;;4.13;1.35;;;;;;;6.82;100.00;100257.59;5029576;28;20143;-80
2022/11/04 01:19:18;;;;;;;1.95;0.55;;;;;;;6.86;100.00;100266.09;5029475;28;20053;-81
2022/11/04 01:21:44;;;;;;;3.83;0.70;;;;;;;6.92;100.00;100270.88;5029591;28;20446;-81
2022/11/04 01:24:09;;;;;;;3.47;0.98;;;;;;;6.98;100.00;100272.16;5029564;28;20126;-81
2022/11/04 01:26:35;;;;;;;4.10;1.38;;;;;;;7.06;100.00;100267.91;5044528;28;20455;-80
2022/11/04 01:29:00;;;;;;;2.55;1.02;;;;;;;7.16;100.00;100269.75;5044666;28;20080;-80
2022/11/04 01:31:28;;;;;;;6.63;1.30;;;;;;;7.24;100.00;100267.31;5029639;28;20121;-81
2022/11/04 01:33:55;;;;;;;4.03;1.10;;;;;;;7.30;100.00;100269.44;5029892;28;20075;-80
2022/11/04 01:36:21;;;;;;;1.88;1.17;;;;;;;7.33;100.00;100274.44;5029245;28;20057;-81
2022/11/04 01:38:47;;;;;;;5.85;1.50;;;;;;;7.35;100.00;100275.16;5029047;28;20072;-81
2022/11/04 01:41:20;;;;;;;3.63;1.40;;;;;;;7.38;100.00;100284.63;5028035;28;20037;-82
2022/11/04 01:43:58;;;;;;;5.13;1.50;;;;;;;7.39;100.00;100279.22;5029730;28;20022;-82
2022/11/04 01:46:48;;;;;;;4.80;2.03;;;;;;;7.42;100.00;100280.75;5029640;28;20037;-82
2022/11/04 01:49:40;;;;;;;3.35;1.30;;;;;;;7.44;100.00;100289.41;5029785;28;20029;-82
2022/11/04 01:52:10;;;;;;;3.20;1.30;;;;;;;7.47;100.00;100290.94;5029590;28;20022;-80
2022/11/04 01:54:37;;;;;;;2.60;1.00;;;;;;;7.50;100.00;100288.88;5031582;28;20026;-79
2022/11/04 01:57:06;;;;;;;3.90;1.00;;;;;;;7.52;100.00;100296.69;5033316;28;20037;-80
2022/11/04 01:59:37;;;;;;;2.67;0.93;;;;;;;7.55;100.00;100297.28;5033680;28;20465;-81
2022/11/04 02:02:03;;;;;;;1.95;1.05;;;;;;;7.55;100.00;100299.91;5032855;28;20095;-80
2022/11/04 02:04:29;;;;;;;3.05;0.90;;;;;;;7.59;100.00;100305.78;5033608;28;20101;-80
2022/11/04 02:07:07;;;;;;;1.73;0.80;;;;;;;7.60;100.00;100310.09;5033613;28;20132;-80
2022/11/04 02:09:35;;;;;;;2.28;1.02;;;;;;;7.62;100.00;100321.38;5031449;28;20406;-80
2022/11/04 02:14:47;;;;;;;4.05;1.33;;;;;;;7.64;100.00;100321.25;5033241;28;20115;-79
2022/11/04 02:17:18;;;;;;;1.23;0.80;;;;;;;7.64;100.00;100323.91;5033544;28;20119;-80
2022/11/04 02:19:47;;;;;;;;;;;;;;;7.61;100.00;100322.34;5033258;28;20041;-80
2022/11/04 02:23:00;;;;;;;9.55;2.55;;;;;;;7.60;100.00;100326.00;5031324;28;20399;-79
2022/11/04 02:25:43;;;;;;;2.65;1.13;;;;;;;7.63;100.00;100332.81;5031325;28;20037;-79
2022/11/04 02:28:42;;;;;;;3.78;2.03;;;;;;;7.63;100.00;100336.31;5032792;28;20120;-79
2022/11/04 02:31:26;;;;;;;5.63;2.60;;;;;;;7.65;100.00;100328.25;5033338;28;20045;-78
2022/11/04 02:34:04;;;;;;;7.18;3.25;;;;;;;7.65;100.00;100334.34;5032696;28;20030;-76
2022/11/04 02:36:43;;;;;;;11.20;4.03;;;;;;;7.66;100.00;100336.06;5031894;28;20384;-77
2022/11/04 02:39:14;;;;;;;10.02;4.35;;;;;;;7.64;100.00;100332.69;5032593;28;20110;-77
2022/11/04 02:41:55;;;;;;;10.35;5.57;;;;;;;7.65;100.00;100323.78;5032874;28;20069;-77
2022/11/04 02:44:49;;;;;;;10.45;5.50;;;;;;;7.66;100.00;100330.75;5032991;28;20041;-76
2022/11/04 02:47:24;;;;;;;12.27;6.10;;;;;;;7.68;100.00;100330.63;5031914;28;20071;-76
2022/11/04 02:50:20;;;;;;;15.60;6.40;;;;;;;7.69;100.00;100330.47;5032734;28;20132;-77
2022/11/04 02:52:53;;;;;;;15.68;6.60;;;;;;;7.70;100.00;100332.16;5032767;28;20041;-78
2022/11/04 02:55:26;;;;;;;14.00;7.22;;;;;;;7.70;100.00;100324.22;5032398;28;20112;-76
2022/11/04 02:57:55;;;;;;;15.55;7.22;;;;;;;7.71;100.00;100327.69;5032466;28;20097;-77
2022/11/04 03:00:20;;;;;;;16.38;7.30;;;;;;;7.73;100.00;100331.03;5031913;28;20111;-76
2022/11/04 03:02:54;;;;;;;17.10;8.35;;;;;;;7.72;100.00;100332.03;5032544;28;20138;-76
2022/11/04 03:05:31;;;;;;;21.73;8.45;;;;;;;7.72;100.00;100326.75;5031641;28;20025;-76
2022/11/04 03:08:02;;;;;;;18.73;8.45;;;;;;;7.71;100.00;100327.69;5032076;28;20036;-76
2022/11/04 03:10:35;;;;;;;19.13;8.80;;;;;;;7.67;100.00;100329.75;5032287;28;20037;-77
2022/11/04 03:13:09;;;;;;;18.05;9.13;;;;;;;7.61;100.00;100326.81;5031994;28;20474;-75
2022/11/04 03:15:39;;;;;;;20.85;8.57;;;;;;;7.53;100.00;100336.25;5032120;28;20111;-77
2022/11/04 03:18:30;;;;;;;20.95;9.95;;;;;;;7.48;100.00;100348.19;5030524;28;20033;-78
2022/11/04 03:21:00;;;;;;;19.88;9.50;;;;;;;7.43;100.00;100348.59;5031862;28;20033;-77
2022/11/04 03:23:25;;;;;;;22.73;9.93;;;;;;;7.37;100.00;100349.94;5031789;28;20038;-77
2022/11/04 03:25:56;;;;;;;20.98;9.45;;;;;;;7.32;100.00;100341.56;5046766;28;20041;-78
2022/11/04 03:28:26;;;;;;;;;;;;;;;7.26;100.00;100342.09;5032043;28;20188;-78
2022/11/04 03:30:56;;;;;;;19.85;9.70;;;;;;;7.20;100.00;100348.75;5031864;28;19921;-78
2022/11/04 03:33:37;;;;;;;23.92;10.30;;;;;;;7.12;100.00;100343.28;5031441;28;20346;-78
2022/11/04 03:36:03;;;;;;;21.25;10.80;;;;;;;7.06;100.00;100352.56;5031904;28;20464;-78
2022/11/04 03:38:29;;;;;;;29.17;12.82;;;;;;;7.02;100.00;100350.28;5031768;28;20030;-79
2022/11/04 03:40:54;;;;;;;23.42;11.18;;;;;;;6.99;100.00;100358.50;5032122;28;20052;-79
2022/11/04 03:43:27;;;;;;;25.02;11.85;;;;;;;6.95;100.00;100360.53;5031962;28;20523;-78
2022/11/04 03:45:53;;;;;;;25.98;11.43;;;;;;;6.96;100.00;100359.56;5032033;28;20140;-79
2022/11/04 03:48:19;;;;;;;29.83;11.82;;;;;;;6.96;100.00;100364.88;5031952;28;20034;-79
2022/11/04 03:50:47;;;;;;;24.38;12.02;;;;;;;6.95;100.00;100373.75;5031664;28;20031;-79
2022/11/04 03:53:16;;;;;;;27.23;11.30;;;;;;;6.99;100.00;100371.72;5031489;28;20422;-78
2022/11/04 03:56:03;;;;;;;23.77;11.38;;;;;;;6.99;100.00;100377.84;5031551;28;20029;-77
2022/11/04 03:58:43;;;;;;;32.35;12.73;;;;;;;7.04;100.00;100378.28;5031398;28;20444;-78
2022/11/04 04:01:28;;;;;;;30.88;13.40;;;;;;;7.09;100.00;100382.34;5031474;28;20350;-77
2022/11/04 04:04:00;;;;;;;30.85;13.75;;;;;;;7.12;100.00;100382.97;5031294;28;20095;-79
2022/11/04 04:06:34;;;;;;;26.80;13.02;;;;;;;7.12;100.00;100382.09;5031011;28;20033;-79
2022/11/04 04:09:18;;;;;;;32.85;13.68;;;;;;;7.13;100.00;100387.25;5031147;28;20107;-79
2022/11/04 04:12:16;;;;;;;32.55;13.77;;;;;;;7.15;100.00;100389.78;5030951;28;20083;-79
2022/11/04 04:14:50;;;;;;;30.17;13.60;;;;;;;7.14;100.00;100388.94;5026866;28;20504;-78
2022/11/04 04:17:15;;;;;;;36.22;13.45;;;;;;;7.13;100.00;100386.44;5030110;28;20113;-78
2022/11/04 04:19:46;;;;;;;33.65;13.73;;;;;;;7.12;100.00;100393.53;5030776;28;20497;-78
2022/11/04 04:22:18;;;;;;;32.15;13.60;;;;;;;7.07;100.00;100390.41;5031142;28;20104;-79
2022/11/04 04:27:32;;;;;;;36.80;14.35;;;;;;;6.98;100.00;100404.41;5030963;28;20140;-79
2022/11/04 04:30:13;;;;;;;33.80;13.32;;;;;;;6.89;100.00;100406.00;5030988;28;20113;-78
2022/11/04 04:32:54;;;;;;;31.05;13.52;;;;;;;6.79;100.00;100408.56;5030197;28;20035;-78
2022/11/04 04:35:41;;;;;;;39.20;13.15;;;;;;;6.70;100.00;100415.44;5030575;28;20136;-79
2022/11/04 04:47:07;;;;;;;30.60;13.88;;;;;;;6.73;100.00;100437.31;5030307;28;20461;-79
2022/11/04 04:49:35;;;;;;;32.10;14.02;;;;;;;6.78;100.00;100443.09;5028705;28;20461;-78
2022/11/04 04:52:05;;;;;;;37.08;14.43;;;;;;;6.78;100.00;100438.63;5030057;28;20073;-78
2022/11/04 04:54:31;;;;;;;26.27;12.65;;;;;;;6.77;100.00;100447.50;5030079;28;20513;-79
2022/11/04 04:56:56;;;;;;;27.08;12.23;;;;;;;6.74;100.00;100449.56;5028512;28;20133;-79
2022/11/04 04:59:21;;;;;;;27.67;12.35;;;;;;;6.71;100.00;100453.28;5029968;28;20042;-78
2022/11/04 05:01:47;;;;;;;25.90;11.55;;;;;;;6.70;100.00;100460.41;5029769;28;20188;-78
2022/11/04 05:04:12;;;;;;;24.23;10.77;;;;;;;6.70;100.00;100463.03;5012259;28;20135;-78
2022/11/04 05:06:37;;;;;;;28.05;11.77;;;;;;;6.70;100.00;100460.41;5030136;28;20541;-79
2022/11/04 05:09:03;;;;;;;31.48;12.20;;;;;;;6.73;100.00;100464.56;5028549;28;20037;-79
2022/11/04 05:11:28;;;;;;;33.83;13.15;;;;;;;6.79;100.00;100461.47;5029908;28;20026;-79
2022/11/04 05:13:53;;;;;;;38.15;13.27;;;;;;;6.88;100.00;100466.00;5030166;28;20172;-79
2022/11/04 05:16:19;;;;;;;32.78;14.23;;;;;;;6.99;100.00;100469.59;5029850;28;20065;-79
2022/11/04 05:18:44;;;;;;;43.67;15.82;;;;;;;7.09;100.00;100475.81;5029928;28;20312;-79
2022/11/04 05:21:13;;;;;;;41.85;16.38;;;;;;;7.16;100.00;100479.59;5030350;28;20069;-79
2022/11/04 05:23:38;;;;;;;39.25;16.23;;;;;;;7.26;100.00;100482.34;5029770;28;20120;-79
2022/11/04 05:26:04;;;;;;;38.83;16.65;;;;;;;7.28;100.00;100475.13;5028920;28;20037;-79
2022/11/04 05:28:29;;;;;;;30.50;14.57;;;;;;;7.32;100.00;100484.50;5027647;28;20112;-79
2022/11/04 05:30:55;;;;;;;35.28;13.95;;;;;;;7.33;100.00;100480.03;5029684;28;20033;-80
2022/11/04 05:33:20;;;;;;;20.48;10.20;;;;;;;7.32;100.00;100489.78;5030156;28;20457;-80
2022/11/04 05:35:46;;;;;;;21.98;9.05;;;;;;;7.28;100.00;100491.00;5011522;28;20038;-79
2022/11/04 05:38:11;;;;;;;12.80;7.13;;;;;;;7.23;100.00;100490.53;5029776;28;20117;-79
2022/11/04 05:40:37;;;;;;;14.15;7.25;;;;;;;7.16;100.00;100497.31;5008368;28;20073;-81
2022/11/04 05:43:02;;;;;;;13.73;7.70;;;;;;;7.12;100.00;100494.06;5009786;28;20096;-81
2022/11/04 05:45:28;;;;;;;16.48;7.60;;;;;;;7.12;100.00;100503.81;5009682;28;20041;-80
2022/11/04 05:48:00;;;;;;;14.32;6.93;;;;;;;7.11;100.00;100497.69;5008010;28;20073;-80
2022/11/04 05:50:27;;;;;;;12.18;6.43;;;;;;;7.12;100.00;100495.88;5009281;28;20033;-80
2022/11/04 05:52:52;;;;;;;15.07;6.70;;;;;;;7.11;100.00;100491.56;5009962;28;20120;-80
2022/11/04 05:55:18;;;;;;;14.18;5.47;;;;;;;7.09;100.00;100502.28;5010243;28;20454;-80
2022/11/04 05:57:43;;;;;;;12.57;5.38;;;;;;;7.06;100.00;100495.41;5009727;28;20038;-80
2022/11/04 06:00:09;;;;;;;17.83;7.40;;;;;;;7.03;100.00;100487.72;5009870;28;20081;-80
2022/11/04 06:02:35;;;;;;;12.65;6.45;;;;;;;7.00;100.00;100490.63;5024198;28;20121;-79
2022/11/04 06:05:00;;;;;;;18.13;7.30;;;;;;;6.96;100.00;100498.94;5009589;28;20111;-79
2022/11/04 06:07:26;;;;;;;13.00;6.82;;;;;;;6.86;100.00;100498.81;5009486;28;20038;-79
2022/11/04 06:09:51;;;;;;;11.25;5.88;;;;;;;6.75;100.00;100499.69;5009553;28;20100;-79
2022/11/04 06:12:16;;;;;;;15.30;6.47;;;;;;;6.64;100.00;100489.97;5009061;28;20037;-80
2022/11/04 06:14:43;;;;;;;13.57;6.70;;;;;;;6.58;100.00;100494.88;5009432;28;20121;-79
2022/11/04 06:17:21;;;;;;;13.43;6.50;;;;;;;6.51;100.00;100492.75;5009266;28;20038;-81
2022/11/04 06:19:47;;;;;;;12.05;6.53;;;;;;;6.50;100.00;100498.16;5009335;28;20358;-79
2022/11/04 06:22:15;;;;;;;14.65;7.30;;;;;;;6.49;100.00;100491.16;5009151;28;20472;-78
2022/11/04 06:24:40;;;;;;;27.95;12.82;;;;;;;6.51;100.00;100490.09;5009153;28;20046;-79
2022/11/04 06:27:06;;;;;;;39.47;17.50;;;;;;;6.61;100.00;100486.72;5008924;28;20049;-80
2022/11/04 06:29:32;;;;;;;38.22;18.35;;;;;;;6.68;100.00;100486.09;5009104;28;20139;-79
2022/11/04 06:31:58;;;;;;;36.88;17.02;;;;;;;6.77;100.00;100494.28;5007401;28;20110;-79
2022/11/04 06:34:23;;;;;;;35.28;17.42;;;;;;;6.82;100.00;100494.72;5009352;28;20045;-79
2022/11/04 06:36:49;;;;;;;35.60;16.80;;;;;;;6.87;100.00;100503.16;5009487;28;20073;-79
2022/11/04 06:39:14;;;;;;;35.17;16.83;;;;;;;6.92;100.00;100510.72;5017770;28;20056;-80
2022/11/04 06:41:40;;;;;;;40.90;16.27;;;;;;;6.95;100.00;100513.13;5029798;28;20059;-80
2022/11/04 06:44:05;;;;;;;36.58;16.02;;;;;;;6.98;100.00;100515.50;5032446;28;20056;-80
2022/11/04 06:46:39;;;;;;;33.13;14.82;;;;;;;6.98;100.00;100521.63;5032431;28;20097;-79
2022/11/04 06:49:06;;;;;;;30.88;14.15;;;;;;;7.00;100.00;100514.44;5030832;28;20026;-79
2022/11/04 06:51:32;;;;;;;27.13;11.68;;;;;;;7.02;100.00;100517.78;5032474;28;20036;-78
2022/11/04 06:53:57;;;;;;;25.90;11.10;;;;;;;7.03;100.00;100522.13;5032405;28;20034;-79
2022/11/04 06:56:22;;;;;;;25.40;10.35;;;;;;;7.01;100.00;100521.38;5032343;28;20029;-79
2022/11/04 06:58:49;;;;;;;20.60;9.25;;;;;;;6.99;100.00;100530.44;5032369;28;20139;-79
2022/11/04 07:01:16;;;;;;;19.58;8.52;;;;;;;6.94;100.00;100528.16;5047227;28;20033;-79
2022/11/04 07:03:41;;;;;;;21.48;8.68;;;;;;;6.92;100.00;100538.00;5032729;28;20079;-80
2022/11/04 07:06:08;;;;;;;19.83;7.97;;;;;;;6.89;100.00;100551.47;5032391;28;20454;-78
2022/11/04 07:08:34;;;;;;;18.65;8.05;;;;;;;6.89;100.00;100547.00;5031957;28;20033;-79
2022/11/04 07:10:59;;;;;;;15.68;7.07;;;;;;;6.89;100.00;100547.00;5032400;28;20127;-82
2022/11/04 07:13:25;;;;;;;15.95;7.32;;;;;;;6.89;100.00;100547.00;5030541;28;20029;-82
2022/11/04 07:15:50;;;;;;;19.13;6.75;;;;;;;6.92;100.00;100561.81;5032815;28;20509;-83
2022/11/04 07:18:16;;;;;;;14.77;6.57;;;;;;;6.93;100.00;100565.31;5032374;28;20124;-83
2022/11/04 07:20:41;;;;;;;16.98;6.03;;;;;;;6.96;100.00;100576.47;5032430;28;20065;-84
2022/11/04 07:23:07;;;;;;;12.73;5.80;;;;;;;7.00;100.00;100575.28;5032525;28;20134;-81
2022/11/04 07:25:33;;;;;;;14.07;6.22;;;;;;;7.03;100.00;100582.97;5032043;28;20034;-82
2022/11/04 07:27:59;;;;;;;16.15;6.65;;;;;;;7.07;100.00;100591.47;5031925;28;20088;-83
2022/11/04 07:30:25;;;;;;;15.73;6.30;;;;;;;7.09;100.00;100580.78;5032166;28;20037;-86
2022/11/04 07:32:50;;;;;;;16.77;6.57;;;;;;;7.11;100.00;100589.44;5031613;28;20393;-79
2022/11/04 07:35:16;;;;;;;14.68;6.57;;;;;;;7.16;100.00;100598.69;5031845;28;20334;-81
2022/11/04 07:37:41;;;;;;;19.35;6.78;;;;;;;7.24;100.00;100601.56;5031679;28;20043;-78
2022/11/04 07:40:07;;;;;;;12.00;5.90;;;;;;;7.31;100.00;100604.53;5031136;28;20049;-79
2022/11/04 07:42:32;;;;;;;15.73;6.97;;;;;;;7.38;100.00;100608.38;5031507;28;20076;-78
2022/11/04 07:44:58;;;;;;;15.80;6.43;;;;;;;7.45;100.00;100610.53;5031478;28;20057;-80
2022/11/04 07:47:23;;;;;;;17.25;6.80;;;;;;;7.48;100.00;100613.78;5046641;28;20497;-78
2022/11/04 07:49:49;;;;;;;18.02;5.95;;;;;;;7.50;100.00;100622.44;5030103;28;20485;-82
2022/11/04 07:52:14;;;;;;;13.52;6.22;;;;;;;7.52;100.00;100633.72;5031168;28;20034;-81
2022/11/04 07:54:40;;;;;;;13.20;5.85;;;;;;;7.55;100.00;100637.94;5046684;28;20053;-81
2022/11/04 07:57:05;;;;;;;18.35;6.22;;;;;;;7.55;100.00;100643.25;5031050;28;20108;-80
2022/11/04 07:59:32;;;;;;;12.70;5.72;;;;;;;7.53;100.00;100645.19;5046393;28;20057;-81
2022/11/04 08:01:57;;;;;;;12.40;5.93;;;;;;;7.53;100.00;100634.59;5031322;28;20399;-80
2022/11/04 08:04:23;;;;;;;12.80;5.97;;;;;;;7.54;100.00;100644.22;5030881;28;20118;-84
2022/11/04 08:06:48;;;;;;;13.60;6.18;;;;;;;7.55;100.00;100645.88;5031206;28;20053;-84
2022/11/04 08:09:13;;;;;;;11.23;5.80;;;;;;;7.58;100.00;100643.84;5030999;28;20107;-84
2022/11/04 08:11:39;;;;;;;13.23;6.18;;;;;;;7.67;100.00;100650.19;5029832;28;20081;-83
2022/11/04 08:14:04;;;;;;;16.27;6.45;;;;;;;7.80;100.00;100652.69;5031281;28;20139;-84
2022/11/04 08:16:30;;;;;;;12.43;6.72;;;;;;;8.00;100.00;100668.75;5029451;28;20033;-83
2022/11/04 08:19:00;;;;;;;12.57;6.13;;;;;;;8.22;100.00;100657.22;5029470;28;20085;-82
2022/11/04 08:21:26;;;;;;;13.18;6.13;;;;;;;8.44;100.00;100665.06;5031164;28;20111;-79
2022/11/04 08:23:51;;;;;;;11.63;5.40;;;;;;;8.67;100.00;100670.22;5030503;28;20441;-80
2022/11/04 08:26:18;;;;;;;12.38;5.20;;;;;;;8.79;100.00;100658.59;5029130;28;20128;-82
2022/11/04 08:28:44;;;;;;;9.60;4.72;;;;;;;8.95;100.00;100666.03;5045734;28;20124;-80
2022/11/04 08:31:15;;;;;;;10.95;3.90;;;;;;;8.94;100.00;100666.19;5045641;28;20116;-79
2022/11/04 08:33:41;;;;;;;10.60;4.28;;;;;;;8.89;100.00;100671.06;5030819;28;20087;-79
2022/11/04 08:36:13;;;;;;;10.55;4.43;;;;;;;8.82;100.00;100666.28;5030629;28;20029;-79
2022/11/04 08:38:39;;;;;;;8.05;3.53;;;;;;;8.84;100.00;100676.75;5030430;28;20373;-79
2022/11/04 08:41:07;;;;;;;9.05;4.65;;;;;;;8.82;100.00;100668.94;5028806;28;20116;-74
2022/11/04 08:43:33;;;;;;;10.40;3.75;;;;;;;8.84;100.00;100674.09;5030508;28;20029;-79
2022/11/04 08:45:59;;;;;;;13.82;4.35;;;;;;;8.83;100.00;100683.03;5030259;28;20171;-76
2022/11/04 08:48:24;;;;;;;10.05;4.75;;;;;;;8.86;100.00;100685.41;5030870;28;20052;-76
2022/11/04 08:50:53;;;;;;;10.82;4.30;;;;;;;8.89;100.00;100692.28;5030541;28;20079;-76
2022/11/04 08:53:19;;;;;;;15.23;4.30;;;;;;;8.88;100.00;100688.78;5030413;28;20030;-75
2022/11/04 08:55:45;;;;;;;10.63;4.20;;;;;;;8.92;100.00;100692.03;5030534;28;20045;-77
2022/11/04 08:58:11;;;;;;;9.38;4.35;;;;;;;8.93;100.00;100688.41;5029885;28;20033;-81
2022/11/04 09:00:37;;;;;;;15.85;4.45;;;;;;;9.01;100.00;100685.91;5030572;28;20029;-78
2022/11/04 09:03:03;;;;;;;8.48;4.32;;;;;;;9.06;100.00;100690.81;5028068;28;20057;-77
2022/11/04 09:05:30;;;;;;;7.78;4.30;;;;;;;9.13;100.00;100690.16;5029689;28;20063;-78
2022/11/04 09:07:56;;;;;;;7.47;4.32;;;;;;;9.29;100.00;100697.63;5030145;28;20038;-78
2022/11/04 09:10:22;;;;;;;12.85;4.00;;;;;;;9.48;100.00;100703.97;5029948;28;20053;-77
2022/11/04 09:12:47;;;;;;;10.73;4.20;;;;;;;9.66;100.00;100702.34;5030110;28;20088;-77
2022/11/04 09:15:13;;;;;;;9.95;3.88;;;;;;;9.86;100.00;100694.41;5028288;28;20034;-80
2022/11/04 09:17:39;;;;;;;8.90;4.00;;;;;;;9.85;100.00;100704.22;5029880;28;20149;-80
2022/11/04 09:20:05;;;;;;;8.57;3.80;;;;;;;9.88;100.00;100690.66;5029958;28;20080;-79
2022/11/04 09:22:30;;;;;;;4.72;2.72;;;;;;;9.98;100.00;100703.09;5029519;28;20041;-77
2022/11/04 09:24:56;;;;;;;8.05;3.13;;;;;;;9.93;100.00;100706.19;5029725;28;20033;-76
2022/11/04 09:27:21;;;;;;;5.82;2.70;;;;;;;10.00;100.00;100715.28;5030070;28;20034;-79
2022/11/04 09:29:47;;;;;;;7.00;2.50;;;;;;;9.99;100.00;100718.09;5029796;28;20033;-80
2022/11/04 09:32:12;;;;;;;9.90;3.45;;;;;;;9.98;100.00;100725.19;5029896;28;20112;-79
2022/11/04 09:34:37;;;;;;;10.02;2.78;;;;;;;9.96;100.00;100726.34;5029243;28;20478;-78
2022/11/04 09:37:03;;;;;;;4.82;2.35;;;;;;;9.88;100.00;100730.50;5029319;28;20445;-78
2022/11/04 09:39:28;;;;;;;6.43;3.00;;;;;;;9.82;100.00;100723.09;5029811;28;20045;-83
2022/11/04 09:41:53;;;;;;;5.63;2.83;;;;;;;9.71;100.00;100723.19;5030276;28;20145;-80
2022/11/04 09:44:24;;;;;;;5.80;3.17;;;;;;;9.64;100.00;100732.69;5030049;28;20037;-77
2022/11/04 09:46:53;;;;;;;8.07;3.00;;;;;;;9.60;100.00;100740.09;5029567;28;20411;-78
2022/11/04 09:49:21;;;;;;;7.30;3.05;;;;;;;9.73;100.00;100739.00;5029275;28;20774;-78
2022/11/04 09:51:48;;;;;;;6.50;2.63;;;;;;;10.08;100.00;100746.47;5029892;28;20033;-77
2022/11/04 09:54:23;;;;;;;5.32;2.53;;;;;;;10.26;100.00;100748.47;5028230;28;20422;-77
2022/11/04 09:56:51;;;;;;;6.30;2.90;;;;;;;10.31;100.00;100754.19;5029231;28;20465;-78
2022/11/04 09:59:27;;;;;;;7.28;2.72;;;;;;;10.18;100.00;100765.09;5029879;28;20119;-84
2022/11/04 10:02:07;;;;;;;9.00;2.75;;;;;;;10.09;100.00;100763.25;5029844;28;20115;-78
2022/11/04 10:04:51;;;;;;;3.47;2.40;;;;;;;10.04;100.00;100761.03;5029581;28;20037;-78
2022/11/04 10:07:32;;;;;;;12.20;3.00;;;;;;;10.13;100.00;100768.16;5028206;28;20029;-80
2022/11/04 10:10:07;;;;;;;6.95;2.80;;;;;;;10.32;100.00;100774.50;5029451;28;20119;-81
2022/11/04 10:13:00;;;;;;;6.63;2.97;;;;;;;10.57;100.00;100776.63;5029676;28;20123;-81
2022/11/04 10:15:38;;;;;;;5.35;2.60;;;;;;;10.83;100.00;100791.19;5029945;28;20041;-81
2022/11/04 10:18:14;;;;;;;5.65;2.90;;;;;;;11.02;100.00;100792.97;5032139;28;20163;-80
2022/11/04 10:21:17;;;;;;;8.45;2.67;;;;;;;11.15;100.00;100798.84;5033382;28;20091;-80
2022/11/04 10:24:00;;;;;;;7.30;2.35;;;;;;;11.24;100.00;100805.97;5033263;28;20040;-81
2022/11/04 10:26:40;;;;;;;5.38;2.45;;;;;;;11.36;100.00;100797.78;5032910;28;20033;-80
2022/11/04 10:29:14;;;;;;;6.85;2.30;;;;;;;11.50;100.00;100796.50;5032977;28;20120;-80
2022/11/04 10:31:43;;;;;;;6.18;2.22;;;;;;;11.58;100.00;100799.25;5032885;28;20061;-80
2022/11/04 10:34:57;;;;;;;5.88;2.28;;;;;;;11.55;100.00;100799.53;5031241;28;20113;-81
2022/11/04 10:37:24;;;;;;;5.35;2.50;;;;;;;11.40;100.00;100807.16;5032465;28;20156;-81
2022/11/04 10:39:55;;;;;;;6.65;2.00;;;;;;;11.30;100.00;100809.88;5032800;28;20041;-81
2022/11/04 10:42:21;;;;;;;;;;;;;;;11.28;100.00;100819.81;5033547;28;20397;-80
2022/11/04 10:44:49;;;;;;;14.27;2.40;;;;;;;11.30;100.00;100823.19;5033096;28;20298;-80
2022/11/04 10:47:36;;;;;;;6.63;1.90;;;;;;;11.28;100.00;100819.81;5032610;28;20072;-80
2022/11/04 10:50:11;;;;;;;7.00;2.20;;;;;;;11.38;100.00;100831.28;5032606;28;20465;-80
2022/11/04 10:52:37;;;;;;;7.50;1.92;;;;;;;11.50;100.00;100828.47;5032855;28;20116;-80
2022/11/04 10:55:10;;;;;;;4.28;1.80;;;;;;;11.58;100.00;100839.22;5030709;28;20519;-81
2022/11/04 10:57:37;;;;;;;3.22;1.27;;;;;;;11.55;100.00;100842.19;5032582;28;20029;-81
2022/11/04 11:00:04;;;;;;;4.53;1.20;;;;;;;11.36;100.00;100846.59;5047869;28;20140;-78
2022/11/04 11:02:35;;;;;;;8.95;1.98;;;;;;;10.91;100.00;100849.84;5032361;28;20037;-78
2022/11/04 11:05:16;;;;;;;;;;;;;;;10.44;100.00;100853.22;5033022;28;20117;-78
2022/11/04 11:07:45;;;;;;;7.85;1.40;;;;;;;10.09;100.00;100845.69;5032295;28;19996;-78
2022/11/04 11:10:37;;;;;;;2.83;1.00;;;;;;;9.81;100.00;100856.91;5032562;28;20033;-79
2022/11/04 11:13:22;;;;;;;5.30;1.65;;;;;;;9.68;100.00;100857.13;5032249;28;20057;-80
2022/11/04 11:15:48;;;;;;;3.63;1.25;;;;;;;9.58;100.00;100864.22;5032434;28;20021;-81
2022/11/04 11:18:15;;;;;;;5.28;1.33;;;;;;;9.54;100.00;100870.78;5032259;28;20037;-79
2022/11/04 11:20:47;;;;;;;3.13;1.30;;;;;;;9.51;100.00;100881.69;5032113;28;20041;-80
2022/11/04 11:23:38;;;;;;;5.40;1.60;;;;;;;9.50;100.00;100888.78;5030466;28;20442;-80
2022/11/04 11:26:11;;;;;;;1.30;1.00;;;;;;;9.57;100.00;100896.22;5031329;28;20091;-80
2022/11/04 11:28:39;;;;;;;1.90;1.08;;;;;;;9.66;100.00;100906.09;5032244;28;20087;-79
2022/11/04 11:31:15;;;;;;;4.05;1.15;;;;;;;9.81;100.00;100898.63;5032248;28;20064;-78
2022/11/04 11:33:48;;;;;;;3.13;0.90;;;;;;;9.92;100.00;100916.28;5031721;28;20034;-79
2022/11/04 11:36:21;;;;;;;5.82;1.10;;;;;;;9.98;100.00;100913.91;5031959;28;20418;-79
2022/11/04 11:38:56;;;;;;;6.72;1.02;;;;;;;10.00;100.00;100916.44;5031775;28;20161;-79
2022/11/04 11:41:27;;;;;;;6.22;1.05;;;;;;;9.93;100.00;100918.81;5032208;28;20041;-80
2022/11/04 11:43:54;;;;;;;2.38;1.08;;;;;;;9.91;100.00;100920.72;5032127;28;20033;-81
2022/11/04 11:46:26;;;;;;;5.53;1.38;;;;;;;9.89;100.00;100923.53;5031878;28;20048;-76
2022/11/04 11:49:00;;;;;;;4.28;1.45;;;;;;;9.88;100.00;100927.19;5032223;28;20396;-78
2022/11/04 11:51:29;;;;;;;7.47;1.35;;;;;;;9.84;100.00;100931.06;5033110;28;20120;-79
2022/11/04 11:54:17;;;;;;;2.53;0.98;;;;;;;9.78;100.00;100934.25;5031964;28;20374;-79
2022/11/04 11:56:47;;;;;;;4.20;1.00;;;;;;;9.73;100.00;100944.41;5031846;28;20052;-81
2022/11/04 11:59:19;;;;;;;3.10;0.98;;;;;;;9.77;100.00;100955.66;5031719;28;20486;-77
2022/11/04 12:01:50;;;;;;;5.10;1.20;;;;;;;9.76;100.00;100964.56;5031962;28;20036;-77
2022/11/04 12:04:19;;;;;;;3.25;0.88;;;;;;;9.82;100.00;100956.06;5031989;28;20029;-77